Waimes, Belgium
Current Conditions -  °F | °C
As of 6:05 PM on Saturday 22 Nov 2014 (Local Time) from EBLB Reporting Station
Clear Clear  
Wind Chill: 45°   Ceiling: Unl
Heat Index: 45°   Visibility: 4mi
Dew Point: 43°   Wind: 2mph
Humidity: 93%   Direction: NA
Pressure: 30.06"   Gusts: NA
Location:  50.41°N, 6.11°E
Report Text: EBLB 221705Z AUTO VRB02KT 7000 NCD 07/06 Q1018 WHT
Loading
Personal Weather Stations






























Interactive Weather Map New forecast layout! Learn more

10-Day Weather Forecast

Advertisements
Track Severe Weather on mobile